KSEF

Sebring Regional Airport

Sebring, Florida, USA
METAR KSEF 220510Z AUTO 24003KT 10SM CLR 25/23 A2997 RMK AO2 T02460226
Observed Flight Rules
Jun-22 @ 05:10 UTC (33 minutes ago) Visual Flight Rules
Wind Visibility Clouds
240° at 3 knots 10 miles
  • Clear skies
Temperatures Readings
Current 25°C / 77°F
Dewpoint 23°C / 73°F
Humidity 89%
Altimeter 29.97" Hg
Pressure 1015 hPa
Elevation 19
METAR KSEF 220510Z AUTO 24003KT 10SM CLR 25/23 A2997 RMK AO2 T02460226
Observed Flight Rules
Jun-22 @ 05:10 UTC
(33 minutes ago)
VFR
Wind Visibility
240° at 3 knots 10 miles
Clouds
  • Clear skies
Temperature Dewpoint
25°C / 77°F 23°C / 73°F
Humidity Altimeter Pressure
89% 29.97" Hg 1015 hPa